sensor_id;sensor_type;location;lat;lon;timestamp;temperature;humidity
49124;DHT22;48506;48.202;16.274;2022-07-23T00:00:39;25.60;75.50
49124;DHT22;48506;48.202;16.274;2022-07-23T00:03:06;25.50;76.00
49124;DHT22;48506;48.202;16.274;2022-07-23T00:05:32;25.50;76.00
49124;DHT22;48506;48.202;16.274;2022-07-23T00:07:58;25.50;76.20
49124;DHT22;48506;48.202;16.274;2022-07-23T00:10:24;25.40;75.60
49124;DHT22;48506;48.202;16.274;2022-07-23T00:12:49;25.40;75.90
49124;DHT22;48506;48.202;16.274;2022-07-23T00:15:15;25.40;75.90
49124;DHT22;48506;48.202;16.274;2022-07-23T00:17:41;25.40;76.10
49124;DHT22;48506;48.202;16.274;2022-07-23T00:20:07;25.40;75.50
49124;DHT22;48506;48.202;16.274;2022-07-23T00:22:33;25.40;76.30
49124;DHT22;48506;48.202;16.274;2022-07-23T00:24:59;25.30;76.60
49124;DHT22;48506;48.202;16.274;2022-07-23T00:27:25;25.20;76.40
49124;DHT22;48506;48.202;16.274;2022-07-23T00:29:51;25.10;76.80
49124;DHT22;48506;48.202;16.274;2022-07-23T00:32:17;25.00;76.90
49124;DHT22;48506;48.202;16.274;2022-07-23T00:34:43;25.00;77.00
49124;DHT22;48506;48.202;16.274;2022-07-23T00:37:09;24.90;77.00
49124;DHT22;48506;48.202;16.274;2022-07-23T00:39:34;24.90;77.00
49124;DHT22;48506;48.202;16.274;2022-07-23T00:42:00;24.90;77.00
49124;DHT22;48506;48.202;16.274;2022-07-23T00:44:28;24.90;76.80
49124;DHT22;48506;48.202;16.274;2022-07-23T00:46:56;24.90;77.40
49124;DHT22;48506;48.202;16.274;2022-07-23T00:49:27;25.00;77.00
49124;DHT22;48506;48.202;16.274;2022-07-23T00:51:53;25.00;76.50
49124;DHT22;48506;48.202;16.274;2022-07-23T00:54:21;25.10;76.40
49124;DHT22;48506;48.202;16.274;2022-07-23T00:56:48;25.10;76.40
49124;DHT22;48506;48.202;16.274;2022-07-23T00:59:14;25.20;76.30
49124;DHT22;48506;48.202;16.274;2022-07-23T01:01:41;25.20;75.40
49124;DHT22;48506;48.202;16.274;2022-07-23T01:04:07;25.30;76.00
49124;DHT22;48506;48.202;16.274;2022-07-23T01:06:35;25.30;75.70
49124;DHT22;48506;48.202;16.274;2022-07-23T01:09:04;25.30;74.90
49124;DHT22;48506;48.202;16.274;2022-07-23T01:11:35;25.40;74.80
49124;DHT22;48506;48.202;16.274;2022-07-23T01:14:17;25.40;74.60
49124;DHT22;48506;48.202;16.274;2022-07-23T01:16:46;25.30;74.60
49124;DHT22;48506;48.202;16.274;2022-07-23T01:19:13;25.30;74.40
49124;DHT22;48506;48.202;16.274;2022-07-23T01:21:41;25.30;75.70
49124;DHT22;48506;48.202;16.274;2022-07-23T01:24:08;25.20;76.30
49124;DHT22;48506;48.202;16.274;2022-07-23T01:26:35;25.10;76.30
49124;DHT22;48506;48.202;16.274;2022-07-23T01:29:02;25.00;76.50
49124;DHT22;48506;48.202;16.274;2022-07-23T01:31:28;25.00;77.20
49124;DHT22;48506;48.202;16.274;2022-07-23T01:33:54;24.80;77.90
49124;DHT22;48506;48.202;16.274;2022-07-23T01:36:20;24.80;78.40
49124;DHT22;48506;48.202;16.274;2022-07-23T01:38:46;24.80;78.30
49124;DHT22;48506;48.202;16.274;2022-07-23T01:41:11;24.80;78.30
49124;DHT22;48506;48.202;16.274;2022-07-23T01:43:37;24.80;78.30
49124;DHT22;48506;48.202;16.274;2022-07-23T01:46:03;24.90;77.80
49124;DHT22;48506;48.202;16.274;2022-07-23T01:48:29;25.00;77.70
49124;DHT22;48506;48.202;16.274;2022-07-23T01:50:55;25.00;77.70
49124;DHT22;48506;48.202;16.274;2022-07-23T01:53:21;25.10;78.00
49124;DHT22;48506;48.202;16.274;2022-07-23T01:55:47;25.20;78.10
49124;DHT22;48506;48.202;16.274;2022-07-23T01:58:13;25.20;77.90
49124;DHT22;48506;48.202;16.274;2022-07-23T02:00:39;25.30;77.60
49124;DHT22;48506;48.202;16.274;2022-07-23T02:03:05;25.40;77.50
49124;DHT22;48506;48.202;16.274;2022-07-23T02:05:32;25.50;77.20
49124;DHT22;48506;48.202;16.274;2022-07-23T02:07:58;25.60;77.40
49124;DHT22;48506;48.202;16.274;2022-07-23T02:10:25;25.70;77.00
49124;DHT22;48506;48.202;16.274;2022-07-23T02:12:51;25.70;76.80
49124;DHT22;48506;48.202;16.274;2022-07-23T02:15:17;25.80;76.90
49124;DHT22;48506;48.202;16.274;2022-07-23T02:17:43;25.80;76.90
49124;DHT22;48506;48.202;16.274;2022-07-23T02:20:10;25.90;76.70
49124;DHT22;48506;48.202;16.274;2022-07-23T02:22:37;25.90;76.70
49124;DHT22;48506;48.202;16.274;2022-07-23T02:25:04;26.00;76.70
49124;DHT22;48506;48.202;16.274;2022-07-23T02:27:31;26.00;76.70
49124;DHT22;48506;48.202;16.274;2022-07-23T02:29:57;26.00;76.80
49124;DHT22;48506;48.202;16.274;2022-07-23T02:32:24;26.00;76.80
49124;DHT22;48506;48.202;16.274;2022-07-23T02:34:50;25.90;77.00
49124;DHT22;48506;48.202;16.274;2022-07-23T02:37:16;25.90;77.20
49124;DHT22;48506;48.202;16.274;2022-07-23T02:39:42;26.00;77.60
49124;DHT22;48506;48.202;16.274;2022-07-23T02:42:08;26.00;76.90
49124;DHT22;48506;48.202;16.274;2022-07-23T02:44:34;26.00;76.60
49124;DHT22;48506;48.202;16.274;2022-07-23T02:47:00;26.00;76.50
49124;DHT22;48506;48.202;16.274;2022-07-23T02:49:26;26.10;76.60
49124;DHT22;48506;48.202;16.274;2022-07-23T02:51:52;26.10;76.90
49124;DHT22;48506;48.202;16.274;2022-07-23T02:54:18;26.10;76.70
49124;DHT22;48506;48.202;16.274;2022-07-23T02:56:44;26.10;76.30
49124;DHT22;48506;48.202;16.274;2022-07-23T02:59:10;26.10;76.10
49124;DHT22;48506;48.202;16.274;2022-07-23T03:01:36;26.10;75.80
49124;DHT22;48506;48.202;16.274;2022-07-23T03:04:02;26.10;75.60
49124;DHT22;48506;48.202;16.274;2022-07-23T03:06:28;26.10;75.80
49124;DHT22;48506;48.202;16.274;2022-07-23T03:08:54;26.10;75.80
49124;DHT22;48506;48.202;16.274;2022-07-23T03:11:20;26.20;75.80
49124;DHT22;48506;48.202;16.274;2022-07-23T03:13:46;26.20;75.50
49124;DHT22;48506;48.202;16.274;2022-07-23T03:16:12;26.20;75.30
49124;DHT22;48506;48.202;16.274;2022-07-23T03:18:38;26.20;75.20
49124;DHT22;48506;48.202;16.274;2022-07-23T03:21:04;26.30;75.20
49124;DHT22;48506;48.202;16.274;2022-07-23T03:23:30;26.30;75.10
49124;DHT22;48506;48.202;16.274;2022-07-23T03:25:56;26.30;75.40
49124;DHT22;48506;48.202;16.274;2022-07-23T03:28:22;26.30;75.40
49124;DHT22;48506;48.202;16.274;2022-07-23T03:30:48;26.30;75.50
49124;DHT22;48506;48.202;16.274;2022-07-23T03:33:14;26.20;75.60
49124;DHT22;48506;48.202;16.274;2022-07-23T03:35:43;26.20;75.50
49124;DHT22;48506;48.202;16.274;2022-07-23T03:38:09;26.20;75.60
49124;DHT22;48506;48.202;16.274;2022-07-23T03:40:34;26.20;75.50
49124;DHT22;48506;48.202;16.274;2022-07-23T03:43:00;26.30;75.80
49124;DHT22;48506;48.202;16.274;2022-07-23T03:45:26;26.30;75.80
49124;DHT22;48506;48.202;16.274;2022-07-23T03:47:52;26.30;75.90
49124;DHT22;48506;48.202;16.274;2022-07-23T03:50:19;26.20;75.90
49124;DHT22;48506;48.202;16.274;2022-07-23T03:52:45;26.30;75.90
49124;DHT22;48506;48.202;16.274;2022-07-23T03:55:11;26.30;75.80
49124;DHT22;48506;48.202;16.274;2022-07-23T03:57:37;26.20;76.00
49124;DHT22;48506;48.202;16.274;2022-07-23T04:00:04;26.20;75.70
49124;DHT22;48506;48.202;16.274;2022-07-23T04:02:32;26.20;76.00
49124;DHT22;48506;48.202;16.274;2022-07-23T04:04:58;26.20;75.90
49124;DHT22;48506;48.202;16.274;2022-07-23T04:07:25;26.20;75.80
49124;DHT22;48506;48.202;16.274;2022-07-23T04:09:50;26.20;76.30
49124;DHT22;48506;48.202;16.274;2022-07-23T04:12:17;26.20;76.20
49124;DHT22;48506;48.202;16.274;2022-07-23T04:14:43;26.20;76.30
49124;DHT22;48506;48.202;16.274;2022-07-23T04:17:09;26.20;75.70
49124;DHT22;48506;48.202;16.274;2022-07-23T04:19:34;26.20;75.50
49124;DHT22;48506;48.202;16.274;2022-07-23T04:22:12;26.20;74.80
49124;DHT22;48506;48.202;16.274;2022-07-23T04:24:38;26.30;74.70
49124;DHT22;48506;48.202;16.274;2022-07-23T04:27:05;26.30;74.90
49124;DHT22;48506;48.202;16.274;2022-07-23T04:29:32;26.30;74.60
49124;DHT22;48506;48.202;16.274;2022-07-23T04:31:57;26.30;75.00
49124;DHT22;48506;48.202;16.274;2022-07-23T04:34:23;26.30;74.40
49124;DHT22;48506;48.202;16.274;2022-07-23T04:36:52;26.30;74.60
49124;DHT22;48506;48.202;16.274;2022-07-23T04:39:19;26.40;75.00
49124;DHT22;48506;48.202;16.274;2022-07-23T04:41:45;26.40;75.00
49124;DHT22;48506;48.202;16.274;2022-07-23T04:44:11;26.40;74.20
49124;DHT22;48506;48.202;16.274;2022-07-23T04:46:37;26.30;73.70
49124;DHT22;48506;48.202;16.274;2022-07-23T04:49:03;26.30;74.30
49124;DHT22;48506;48.202;16.274;2022-07-23T04:51:29;26.30;74.40
49124;DHT22;48506;48.202;16.274;2022-07-23T04:53:56;26.30;74.10
49124;DHT22;48506;48.202;16.274;2022-07-23T04:56:22;26.30;74.10
49124;DHT22;48506;48.202;16.274;2022-07-23T04:58:48;26.30;74.20
49124;DHT22;48506;48.202;16.274;2022-07-23T05:01:14;26.30;74.40
49124;DHT22;48506;48.202;16.274;2022-07-23T05:03:40;26.30;74.10
49124;DHT22;48506;48.202;16.274;2022-07-23T05:06:06;26.20;73.80
49124;DHT22;48506;48.202;16.274;2022-07-23T05:08:32;26.20;74.00
49124;DHT22;48506;48.202;16.274;2022-07-23T05:11:01;26.20;74.00
49124;DHT22;48506;48.202;16.274;2022-07-23T05:13:27;26.30;73.90
49124;DHT22;48506;48.202;16.274;2022-07-23T05:15:53;26.40;73.90
49124;DHT22;48506;48.202;16.274;2022-07-23T05:18:19;26.50;74.20
49124;DHT22;48506;48.202;16.274;2022-07-23T05:20:45;26.70;73.50
49124;DHT22;48506;48.202;16.274;2022-07-23T05:23:10;26.80;73.20
49124;DHT22;48506;48.202;16.274;2022-07-23T05:25:36;26.90;73.80
49124;DHT22;48506;48.202;16.274;2022-07-23T05:28:02;27.10;73.10
49124;DHT22;48506;48.202;16.274;2022-07-23T05:30:28;27.20;72.70
49124;DHT22;48506;48.202;16.274;2022-07-23T05:32:55;27.30;72.70
49124;DHT22;48506;48.202;16.274;2022-07-23T05:35:21;27.50;73.00
49124;DHT22;48506;48.202;16.274;2022-07-23T05:37:47;27.70;72.50
49124;DHT22;48506;48.202;16.274;2022-07-23T05:40:13;27.90;72.00
49124;DHT22;48506;48.202;16.274;2022-07-23T05:42:40;28.00;72.20
49124;DHT22;48506;48.202;16.274;2022-07-23T05:45:08;28.20;71.80
49124;DHT22;48506;48.202;16.274;2022-07-23T05:47:46;28.30;71.20
49124;DHT22;48506;48.202;16.274;2022-07-23T05:50:13;28.30;71.10
49124;DHT22;48506;48.202;16.274;2022-07-23T05:52:39;28.10;71.50
49124;DHT22;48506;48.202;16.274;2022-07-23T05:55:08;28.00;71.90
49124;DHT22;48506;48.202;16.274;2022-07-23T05:57:35;27.90;72.20
49124;DHT22;48506;48.202;16.274;2022-07-23T06:00:03;28.00;73.00
49124;DHT22;48506;48.202;16.274;2022-07-23T06:02:29;28.10;73.20
49124;DHT22;48506;48.202;16.274;2022-07-23T06:04:55;28.30;71.40
49124;DHT22;48506;48.202;16.274;2022-07-23T06:07:21;28.30;71.60
49124;DHT22;48506;48.202;16.274;2022-07-23T06:09:47;28.40;71.70
49124;DHT22;48506;48.202;16.274;2022-07-23T06:12:15;28.40;71.80
49124;DHT22;48506;48.202;16.274;2022-07-23T06:14:42;28.40;71.60
49124;DHT22;48506;48.202;16.274;2022-07-23T06:17:08;28.40;70.70
49124;DHT22;48506;48.202;16.274;2022-07-23T06:19:34;28.50;71.10
49124;DHT22;48506;48.202;16.274;2022-07-23T06:22:00;28.60;71.00
49124;DHT22;48506;48.202;16.274;2022-07-23T06:24:26;28.70;69.70
49124;DHT22;48506;48.202;16.274;2022-07-23T06:26:52;28.80;69.70
49124;DHT22;48506;48.202;16.274;2022-07-23T06:29:17;28.80;69.40
49124;DHT22;48506;48.202;16.274;2022-07-23T06:31:43;28.90;69.40
49124;DHT22;48506;48.202;16.274;2022-07-23T06:34:09;29.00;68.90
49124;DHT22;48506;48.202;16.274;2022-07-23T06:36:35;29.10;69.10
49124;DHT22;48506;48.202;16.274;2022-07-23T06:39:01;29.20;68.10
49124;DHT22;48506;48.202;16.274;2022-07-23T06:41:28;29.30;66.60
49124;DHT22;48506;48.202;16.274;2022-07-23T06:43:53;29.30;67.20
49124;DHT22;48506;48.202;16.274;2022-07-23T06:46:19;29.50;67.00
49124;DHT22;48506;48.202;16.274;2022-07-23T06:48:47;29.50;66.70
49124;DHT22;48506;48.202;16.274;2022-07-23T06:51:14;29.60;65.20
49124;DHT22;48506;48.202;16.274;2022-07-23T06:53:40;29.50;65.80
49124;DHT22;48506;48.202;16.274;2022-07-23T06:56:07;29.40;66.40
49124;DHT22;48506;48.202;16.274;2022-07-23T06:58:32;29.50;65.80
49124;DHT22;48506;48.202;16.274;2022-07-23T07:00:58;29.50;65.90
49124;DHT22;48506;48.202;16.274;2022-07-23T07:03:25;29.60;65.60
49124;DHT22;48506;48.202;16.274;2022-07-23T07:05:51;29.80;64.20
49124;DHT22;48506;48.202;16.274;2022-07-23T07:08:18;29.90;64.30
49124;DHT22;48506;48.202;16.274;2022-07-23T07:10:44;30.10;64.30
49124;DHT22;48506;48.202;16.274;2022-07-23T07:13:12;30.20;63.10
49124;DHT22;48506;48.202;16.274;2022-07-23T07:15:38;30.30;62.60
49124;DHT22;48506;48.202;16.274;2022-07-23T07:18:04;30.40;61.80
49124;DHT22;48506;48.202;16.274;2022-07-23T07:20:30;30.40;62.70
49124;DHT22;48506;48.202;16.274;2022-07-23T07:22:56;30.50;62.20
49124;DHT22;48506;48.202;16.274;2022-07-23T07:25:22;30.60;62.70
49124;DHT22;48506;48.202;16.274;2022-07-23T07:27:48;30.60;61.80
49124;DHT22;48506;48.202;16.274;2022-07-23T07:30:15;30.60;62.10
49124;DHT22;48506;48.202;16.274;2022-07-23T07:32:42;30.60;60.50
49124;DHT22;48506;48.202;16.274;2022-07-23T07:35:09;30.50;61.20
49124;DHT22;48506;48.202;16.274;2022-07-23T07:37:35;30.40;60.40
49124;DHT22;48506;48.202;16.274;2022-07-23T07:40:02;30.50;60.20
49124;DHT22;48506;48.202;16.274;2022-07-23T07:42:28;30.40;60.50
49124;DHT22;48506;48.202;16.274;2022-07-23T07:44:54;30.40;60.40
49124;DHT22;48506;48.202;16.274;2022-07-23T07:47:20;30.50;60.30
49124;DHT22;48506;48.202;16.274;2022-07-23T07:49:47;30.50;60.70
49124;DHT22;48506;48.202;16.274;2022-07-23T07:52:14;30.60;61.10
49124;DHT22;48506;48.202;16.274;2022-07-23T07:54:42;30.50;61.00
49124;DHT22;48506;48.202;16.274;2022-07-23T07:57:08;30.40;61.20
49124;DHT22;48506;48.202;16.274;2022-07-23T07:59:36;30.50;61.60
49124;DHT22;48506;48.202;16.274;2022-07-23T08:02:02;30.70;61.50
49124;DHT22;48506;48.202;16.274;2022-07-23T08:04:28;30.80;60.10
49124;DHT22;48506;48.202;16.274;2022-07-23T08:06:54;30.80;59.40
49124;DHT22;48506;48.202;16.274;2022-07-23T08:09:20;30.80;60.50
49124;DHT22;48506;48.202;16.274;2022-07-23T08:11:46;30.80;60.00
49124;DHT22;48506;48.202;16.274;2022-07-23T08:14:12;30.90;61.10
49124;DHT22;48506;48.202;16.274;2022-07-23T08:16:40;31.00;60.30
49124;DHT22;48506;48.202;16.274;2022-07-23T08:19:07;31.00;59.60
49124;DHT22;48506;48.202;16.274;2022-07-23T08:21:34;30.90;59.70
49124;DHT22;48506;48.202;16.274;2022-07-23T08:24:00;30.80;59.80
49124;DHT22;48506;48.202;16.274;2022-07-23T08:26:26;30.70;61.00
49124;DHT22;48506;48.202;16.274;2022-07-23T08:28:51;30.70;60.90
49124;DHT22;48506;48.202;16.274;2022-07-23T08:31:18;30.70;60.80
49124;DHT22;48506;48.202;16.274;2022-07-23T08:33:44;30.70;59.40
49124;DHT22;48506;48.202;16.274;2022-07-23T08:36:11;30.60;60.20
49124;DHT22;48506;48.202;16.274;2022-07-23T08:38:38;30.50;61.70
49124;DHT22;48506;48.202;16.274;2022-07-23T08:41:07;30.50;60.90
49124;DHT22;48506;48.202;16.274;2022-07-23T08:43:34;30.60;61.00
49124;DHT22;48506;48.202;16.274;2022-07-23T08:46:03;30.90;59.60
49124;DHT22;48506;48.202;16.274;2022-07-23T08:48:32;31.20;58.40
49124;DHT22;48506;48.202;16.274;2022-07-23T08:51:00;31.20;58.70
49124;DHT22;48506;48.202;16.274;2022-07-23T08:53:28;31.40;59.40
49124;DHT22;48506;48.202;16.274;2022-07-23T08:55:56;31.50;58.40
49124;DHT22;48506;48.202;16.274;2022-07-23T08:58:24;31.50;58.00
49124;DHT22;48506;48.202;16.274;2022-07-23T09:00:52;31.50;59.30
49124;DHT22;48506;48.202;16.274;2022-07-23T09:03:25;31.60;58.30
49124;DHT22;48506;48.202;16.274;2022-07-23T09:05:52;31.60;57.60
49124;DHT22;48506;48.202;16.274;2022-07-23T09:08:24;31.90;58.00
49124;DHT22;48506;48.202;16.274;2022-07-23T09:11:07;32.20;57.90
49124;DHT22;48506;48.202;16.274;2022-07-23T09:13:41;32.40;56.40
49124;DHT22;48506;48.202;16.274;2022-07-23T09:16:25;32.70;56.40
49124;DHT22;48506;48.202;16.274;2022-07-23T09:18:54;32.90;56.60
49124;DHT22;48506;48.202;16.274;2022-07-23T09:24:05;33.00;54.60
49124;DHT22;48506;48.202;16.274;2022-07-23T09:26:42;32.60;56.10
49124;DHT22;48506;48.202;16.274;2022-07-23T09:29:12;32.50;55.80
49124;DHT22;48506;48.202;16.274;2022-07-23T09:36:38;32.80;57.00
49124;DHT22;48506;48.202;16.274;2022-07-23T09:39:05;33.10;56.40
49124;DHT22;48506;48.202;16.274;2022-07-23T09:41:43;33.40;57.70
49124;DHT22;48506;48.202;16.274;2022-07-23T09:44:18;33.70;55.20
49124;DHT22;48506;48.202;16.274;2022-07-23T09:46:46;33.80;55.00
49124;DHT22;48506;48.202;16.274;2022-07-23T09:49:17;33.80;54.20
49124;DHT22;48506;48.202;16.274;2022-07-23T09:51:56;33.60;54.60
49124;DHT22;48506;48.202;16.274;2022-07-23T09:56:58;33.60;54.40
49124;DHT22;48506;48.202;16.274;2022-07-23T09:59:31;33.70;54.60
49124;DHT22;48506;48.202;16.274;2022-07-23T10:02:00;33.90;53.90
49124;DHT22;48506;48.202;16.274;2022-07-23T10:04:29;34.00;53.60
49124;DHT22;48506;48.202;16.274;2022-07-23T10:06:58;34.20;54.80
49124;DHT22;48506;48.202;16.274;2022-07-23T10:09:30;34.40;53.60
49124;DHT22;48506;48.202;16.274;2022-07-23T10:12:00;34.50;52.70
49124;DHT22;48506;48.202;16.274;2022-07-23T10:14:41;34.60;53.20
49124;DHT22;48506;48.202;16.274;2022-07-23T10:17:08;34.70;52.60
49124;DHT22;48506;48.202;16.274;2022-07-23T10:19:34;34.70;53.90
49124;DHT22;48506;48.202;16.274;2022-07-23T10:32:53;35.70;51.10
